Time;durP1;ratioP1;P1;durP2;ratioP2;P2;SDS_P1;SDS_P2;PMS_P1;PMS_P2;Temp;Humidity;BMP_temperature;BMP_pressure;BME280_temperature;BME280_humidity;BME280_pressure;Samples;Min_cycle;Max_cycle;Signal;HPM_P1;HPM_P2
2022/11/13 00:02:09;;;;;;;24.98;14.77;;;;;;;;;;4967411;28;20039;-82
2022/11/13 00:04:34;;;;;;;27.85;14.63;;;;;;;;;;4968949;28;20042;-82
2022/11/13 00:07:00;;;;;;;24.92;14.70;;;;;;;;;;4964561;28;20056;-83
2022/11/13 00:09:25;;;;;;;25.85;14.63;;;;;;;;;;4971483;28;20034;-82
2022/11/13 00:11:50;;;;;;;28.10;15.95;;;;;;;;;;4958493;28;20486;-81
2022/11/13 00:14:16;;;;;;;27.02;15.75;;;;;;;;;;4967552;28;20125;-82
2022/11/13 00:16:41;;;;;;;32.40;16.83;;;;;;;;;;4991227;28;20038;-82
2022/11/13 00:19:07;;;;;;;29.52;15.82;;;;;;;;;;4978717;28;20062;-82
2022/11/13 00:21:32;;;;;;;28.05;15.93;;;;;;;;;;4962454;28;20046;-82
2022/11/13 00:23:57;;;;;;;28.45;15.75;;;;;;;;;;4976681;28;20053;-83
2022/11/13 00:26:27;;;;;;;27.25;15.25;;;;;;;;;;4966113;28;20039;-81
2022/11/13 00:28:57;;;;;;;28.83;16.10;;;;;;;;;;4969828;28;20398;-84
2022/11/13 00:31:23;;;;;;;26.08;15.32;;;;;;;;;;4960460;28;20035;-82
2022/11/13 00:33:49;;;;;;;28.33;15.77;;;;;;;;;;4961549;28;20094;-82
2022/11/13 00:36:20;;;;;;;32.92;15.75;;;;;;;;;;4960562;28;20506;-82
2022/11/13 00:38:45;;;;;;;24.70;14.82;;;;;;;;;;4981774;28;20122;-81
2022/11/13 00:41:14;;;;;;;26.52;15.15;;;;;;;;;;4989522;28;20438;-82
2022/11/13 00:43:40;;;;;;;25.17;14.60;;;;;;;;;;4961773;28;20067;-82
2022/11/13 00:46:06;;;;;;;26.23;14.40;;;;;;;;;;4974617;28;20058;-83
2022/11/13 00:48:34;;;;;;;20.98;12.55;;;;;;;;;;4959506;28;20478;-82
2022/11/13 00:50:59;;;;;;;22.63;13.35;;;;;;;;;;4975373;28;21073;-82
2022/11/13 00:53:25;;;;;;;25.38;13.95;;;;;;;;;;4962797;28;20066;-82
2022/11/13 00:55:50;;;;;;;25.27;14.77;;;;;;;;;;4962934;28;20097;-82
2022/11/13 00:58:16;;;;;;;24.45;14.25;;;;;;;;;;4974764;28;20035;-82
2022/11/13 01:00:43;;;;;;;23.58;13.48;;;;;;;;;;4982664;28;20094;-82
2022/11/13 01:03:09;;;;;;;24.40;13.02;;;;;;;;;;4967761;28;20402;-82
2022/11/13 01:05:39;;;;;;;22.52;12.68;;;;;;;;;;4959307;28;20046;-83
2022/11/13 01:08:05;;;;;;;21.13;12.48;;;;;;;;;;4989570;28;20498;-82
2022/11/13 01:10:32;;;;;;;22.13;12.88;;;;;;;;;;4973418;28;20035;-83
2022/11/13 01:12:57;;;;;;;22.33;13.75;;;;;;;;;;4970532;28;20454;-83
2022/11/13 01:15:22;;;;;;;25.42;13.13;;;;;;;;;;4977919;28;20122;-83
2022/11/13 01:17:49;;;;;;;21.30;12.30;;;;;;;;;;4973578;28;20108;-83
2022/11/13 01:20:14;;;;;;;20.60;12.85;;;;;;;;;;4974289;28;20199;-82
2022/11/13 01:22:40;;;;;;;24.50;13.65;;;;;;;;;;4965264;28;20039;-82
2022/11/13 01:25:06;;;;;;;21.33;12.85;;;;;;;;;;4988513;28;20027;-82
2022/11/13 01:27:34;;;;;;;22.27;13.05;;;;;;;;;;4981051;28;20529;-82
2022/11/13 01:30:00;;;;;;;22.33;13.23;;;;;;;;;;4983082;28;20038;-82
2022/11/13 01:32:25;;;;;;;22.23;12.52;;;;;;;;;;4960810;28;20084;-83
2022/11/13 01:34:51;;;;;;;25.42;13.65;;;;;;;;;;4967138;28;20035;-82
2022/11/13 01:37:16;;;;;;;21.30;12.40;;;;;;;;;;4962054;28;20061;-82
2022/11/13 01:39:41;;;;;;;21.70;12.57;;;;;;;;;;4983596;28;20042;-82
2022/11/13 01:42:07;;;;;;;23.17;13.00;;;;;;;;;;4965319;28;20073;-83
2022/11/13 01:44:50;;;;;;;19.67;12.13;;;;;;;;;;4974293;28;20049;-83
2022/11/13 01:47:16;;;;;;;21.25;12.85;;;;;;;;;;4977581;28;20580;-82
2022/11/13 01:49:42;;;;;;;23.45;13.23;;;;;;;;;;4968833;28;20043;-83
2022/11/13 01:52:11;;;;;;;20.88;12.05;;;;;;;;;;4977662;28;20041;-82
2022/11/13 01:54:40;;;;;;;21.33;12.30;;;;;;;;;;4977128;28;20057;-82
2022/11/13 01:57:05;;;;;;;18.52;12.15;;;;;;;;;;4966146;28;20146;-82
2022/11/13 01:59:40;;;;;;;19.38;11.40;;;;;;;;;;4986700;28;20175;-83
2022/11/13 02:02:05;;;;;;;19.33;11.68;;;;;;;;;;4973186;28;20525;-81
2022/11/13 02:04:31;;;;;;;18.58;11.45;;;;;;;;;;4960534;28;20030;-81
2022/11/13 02:06:58;;;;;;;19.65;11.30;;;;;;;;;;4962393;28;20042;-81
2022/11/13 02:09:26;;;;;;;20.05;11.18;;;;;;;;;;4979655;28;20037;-82
2022/11/13 02:11:52;;;;;;;19.40;11.35;;;;;;;;;;4986482;28;20153;-82
2022/11/13 02:14:19;;;;;;;20.90;12.23;;;;;;;;;;4962617;28;20560;-82
2022/11/13 02:16:46;;;;;;;17.10;10.80;;;;;;;;;;4990844;28;20375;-82
2022/11/13 02:19:14;;;;;;;;;;;;;;;;;;4969789;28;20034;-83
2022/11/13 02:21:45;;;;;;;18.15;10.50;;;;;;;;;;4975713;28;20417;-82
2022/11/13 02:24:10;;;;;;;21.67;11.20;;;;;;;;;;4964773;28;20390;-82
2022/11/13 02:26:36;;;;;;;17.08;11.07;;;;;;;;;;4975390;28;20049;-81
2022/11/13 02:29:01;;;;;;;19.73;11.27;;;;;;;;;;4962401;28;20035;-82
2022/11/13 02:31:27;;;;;;;18.80;10.55;;;;;;;;;;4965186;28;20038;-84
2022/11/13 02:33:52;;;;;;;20.60;11.80;;;;;;;;;;4969373;28;20117;-81
2022/11/13 02:36:19;;;;;;;18.70;10.98;;;;;;;;;;4961771;28;20039;-82
2022/11/13 02:38:45;;;;;;;19.10;11.18;;;;;;;;;;4977775;28;20035;-82
2022/11/13 02:41:10;;;;;;;19.15;10.98;;;;;;;;;;4963709;28;20128;-82
2022/11/13 02:43:35;;;;;;;20.48;11.70;;;;;;;;;;4962555;28;20145;-82
2022/11/13 02:46:01;;;;;;;16.80;10.45;;;;;;;;;;4975309;28;20058;-82
2022/11/13 02:48:26;;;;;;;17.85;11.27;;;;;;;;;;4969938;28;20149;-81
2022/11/13 02:50:51;;;;;;;19.10;11.30;;;;;;;;;;4991365;28;20066;-81
2022/11/13 02:53:17;;;;;;;19.65;11.43;;;;;;;;;;4979320;28;20034;-82
2022/11/13 02:55:42;;;;;;;18.33;11.13;;;;;;;;;;4969700;28;20051;-82
2022/11/13 02:58:07;;;;;;;21.10;11.27;;;;;;;;;;4967902;28;20042;-83
2022/11/13 03:00:33;;;;;;;18.63;10.88;;;;;;;;;;4963594;28;20030;-82
2022/11/13 03:02:58;;;;;;;20.25;11.18;;;;;;;;;;4977078;28;20105;-82
2022/11/13 03:05:24;;;;;;;19.23;10.40;;;;;;;;;;4977192;28;20104;-82
2022/11/13 03:07:49;;;;;;;18.80;11.02;;;;;;;;;;4976431;28;20038;-82
2022/11/13 03:10:15;;;;;;;19.00;11.00;;;;;;;;;;4945714;28;20065;-82
2022/11/13 03:12:40;;;;;;;18.55;11.10;;;;;;;;;;4974166;28;20057;-82
2022/11/13 03:15:07;;;;;;;19.05;10.98;;;;;;;;;;4968928;28;20113;-82
2022/11/13 03:17:33;;;;;;;18.38;10.48;;;;;;;;;;4974408;28;20047;-84
2022/11/13 03:19:58;;;;;;;18.55;11.13;;;;;;;;;;4968705;28;20038;-84
2022/11/13 03:22:24;;;;;;;14.77;9.85;;;;;;;;;;4968262;28;20034;-84
2022/11/13 03:24:50;;;;;;;16.58;10.13;;;;;;;;;;4981992;28;20355;-84
2022/11/13 03:27:15;;;;;;;17.20;10.45;;;;;;;;;;4967421;28;20049;-84
2022/11/13 03:29:40;;;;;;;14.02;9.32;;;;;;;;;;4974455;28;20127;-83
2022/11/13 03:32:06;;;;;;;16.48;10.02;;;;;;;;;;4973285;28;20487;-83
2022/11/13 03:34:31;;;;;;;16.80;10.00;;;;;;;;;;4969179;28;20161;-84
2022/11/13 03:36:57;;;;;;;18.40;10.32;;;;;;;;;;4979950;28;20085;-84
2022/11/13 03:39:22;;;;;;;17.40;10.18;;;;;;;;;;4943720;28;20403;-84
2022/11/13 03:41:48;;;;;;;14.75;9.32;;;;;;;;;;4962690;28;20040;-84
2022/11/13 03:44:13;;;;;;;15.38;9.60;;;;;;;;;;4991307;28;20031;-84
2022/11/13 03:46:39;;;;;;;15.40;9.30;;;;;;;;;;4968982;28;20827;-84
2022/11/13 03:49:04;;;;;;;17.75;10.57;;;;;;;;;;4963443;28;20032;-84
2022/11/13 03:51:30;;;;;;;15.63;9.85;;;;;;;;;;4979326;28;20058;-84
2022/11/13 03:53:55;;;;;;;19.65;10.30;;;;;;;;;;4967375;28;20043;-84
2022/11/13 03:56:21;;;;;;;15.93;10.00;;;;;;;;;;4972977;28;20034;-84
2022/11/13 03:58:46;;;;;;;17.90;9.43;;;;;;;;;;4949399;28;20045;-85
2022/11/13 04:01:11;;;;;;;16.75;10.02;;;;;;;;;;4963722;28;20047;-84
2022/11/13 04:03:37;;;;;;;18.45;9.20;;;;;;;;;;4943351;28;20046;-84
2022/11/13 04:06:03;;;;;;;13.85;8.45;;;;;;;;;;4964381;28;20422;-84
2022/11/13 04:08:28;;;;;;;14.93;9.77;;;;;;;;;;4962498;28;20520;-83
2022/11/13 04:10:53;;;;;;;16.23;9.23;;;;;;;;;;4957689;28;20398;-84
2022/11/13 04:13:19;;;;;;;16.20;9.35;;;;;;;;;;4956135;28;20423;-83
2022/11/13 04:15:44;;;;;;;13.43;8.27;;;;;;;;;;4955726;28;20035;-84
2022/11/13 04:18:09;;;;;;;13.70;8.15;;;;;;;;;;4942827;28;20042;-85
2022/11/13 04:20:35;;;;;;;13.00;8.65;;;;;;;;;;4940650;28;20071;-86
2022/11/13 04:23:00;;;;;;;13.00;8.60;;;;;;;;;;4962653;28;20038;-85
2022/11/13 04:25:26;;;;;;;13.63;8.43;;;;;;;;;;4962299;28;20117;-85
2022/11/13 04:27:52;;;;;;;11.50;8.18;;;;;;;;;;4963839;28;20035;-85
2022/11/13 04:30:18;;;;;;;14.70;7.95;;;;;;;;;;4977009;28;20085;-83
2022/11/13 04:32:44;;;;;;;14.20;8.20;;;;;;;;;;4983656;28;20050;-84
2022/11/13 04:35:09;;;;;;;13.70;7.43;;;;;;;;;;4978829;28;20153;-84
2022/11/13 04:37:35;;;;;;;12.50;6.90;;;;;;;;;;4989828;28;20061;-84
2022/11/13 04:40:00;;;;;;;13.45;8.23;;;;;;;;;;4967220;28;20041;-85
2022/11/13 04:45:10;;;;;;;11.07;6.85;;;;;;;;;;4976538;28;20483;-85
2022/11/13 04:47:35;;;;;;;13.32;7.40;;;;;;;;;;4959713;28;20046;-85
2022/11/13 04:50:01;;;;;;;12.15;7.30;;;;;;;;;;4961176;28;20117;-84
2022/11/13 04:52:27;;;;;;;10.75;6.65;;;;;;;;;;4982622;28;20035;-84
2022/11/13 04:54:53;;;;;;;12.35;7.22;;;;;;;;;;4964697;28;20553;-84
2022/11/13 04:57:18;;;;;;;12.05;7.03;;;;;;;;;;4971845;28;20057;-84
2022/11/13 04:59:44;;;;;;;13.07;7.10;;;;;;;;;;4960944;28;20027;-85
2022/11/13 05:02:09;;;;;;;11.75;7.20;;;;;;;;;;4965365;28;20385;-85
2022/11/13 05:04:34;;;;;;;12.63;7.35;;;;;;;;;;4976871;28;20126;-84
2022/11/13 05:07:00;;;;;;;12.95;7.47;;;;;;;;;;4964563;28;20042;-84
2022/11/13 05:09:25;;;;;;;12.10;7.80;;;;;;;;;;4974227;28;20093;-84
2022/11/13 05:11:51;;;;;;;11.85;7.30;;;;;;;;;;4991422;28;20498;-85
2022/11/13 05:14:16;;;;;;;11.75;7.10;;;;;;;;;;4958714;28;20043;-85
2022/11/13 05:16:41;;;;;;;12.73;6.63;;;;;;;;;;4983012;28;20034;-84
2022/11/13 05:19:07;;;;;;;12.93;7.18;;;;;;;;;;4959619;28;20129;-84
2022/11/13 05:21:37;;;;;;;12.52;6.60;;;;;;;;;;4964559;28;20506;-84
2022/11/13 05:24:03;;;;;;;11.68;6.90;;;;;;;;;;4992731;28;20398;-84
2022/11/13 05:26:28;;;;;;;11.55;7.05;;;;;;;;;;4958689;28;20049;-84
2022/11/13 05:28:59;;;;;;;12.95;6.78;;;;;;;;;;4963333;28;20034;-85
2022/11/13 05:31:25;;;;;;;11.75;6.65;;;;;;;;;;4974121;28;20475;-84
2022/11/13 05:33:51;;;;;;;11.65;6.40;;;;;;;;;;4958581;28;20443;-84
2022/11/13 05:36:17;;;;;;;11.98;6.47;;;;;;;;;;4972376;28;20149;-84
2022/11/13 05:38:43;;;;;;;10.68;6.55;;;;;;;;;;4966113;28;20908;-84
2022/11/13 05:41:11;;;;;;;10.43;6.25;;;;;;;;;;4965650;28;20045;-84
2022/11/13 05:43:38;;;;;;;10.88;5.93;;;;;;;;;;4970869;28;20556;-84
2022/11/13 05:46:04;;;;;;;10.23;5.85;;;;;;;;;;4971195;28;20046;-84
2022/11/13 05:48:31;;;;;;;11.85;6.40;;;;;;;;;;4960205;28;20043;-84
2022/11/13 05:51:04;;;;;;;12.82;6.72;;;;;;;;;;4976763;28;20125;-84
2022/11/13 05:53:30;;;;;;;10.95;6.65;;;;;;;;;;4966490;28;20043;-84
2022/11/13 05:56:00;;;;;;;12.82;7.22;;;;;;;;;;4966376;28;20182;-83
2022/11/13 05:58:27;;;;;;;12.07;6.82;;;;;;;;;;4972340;28;20050;-84
2022/11/13 06:00:52;;;;;;;12.80;6.68;;;;;;;;;;4973691;28;20088;-84
2022/11/13 06:03:18;;;;;;;9.88;6.20;;;;;;;;;;4961548;28;20038;-85
2022/11/13 06:05:43;;;;;;;13.70;6.47;;;;;;;;;;4966574;28;20046;-85
2022/11/13 06:08:08;;;;;;;11.65;6.68;;;;;;;;;;4965945;28;20517;-84
2022/11/13 06:10:34;;;;;;;12.20;6.82;;;;;;;;;;4973913;28;20386;-84
2022/11/13 06:12:59;;;;;;;11.70;6.95;;;;;;;;;;4955185;28;20088;-84
2022/11/13 06:15:25;;;;;;;11.82;6.65;;;;;;;;;;4958436;28;20198;-84
2022/11/13 06:17:53;;;;;;;11.40;7.22;;;;;;;;;;4959380;28;20622;-85
2022/11/13 06:20:19;;;;;;;12.32;7.43;;;;;;;;;;4959096;28;20184;-85
2022/11/13 06:22:44;;;;;;;12.35;7.03;;;;;;;;;;4957279;28;20038;-85
2022/11/13 06:25:09;;;;;;;11.55;7.15;;;;;;;;;;4964919;28;20042;-85
2022/11/13 06:27:35;;;;;;;12.32;7.40;;;;;;;;;;4956869;28;20046;-86
2022/11/13 06:30:00;;;;;;;14.57;8.05;;;;;;;;;;4973466;28;20039;-85
2022/11/13 06:32:25;;;;;;;13.05;7.72;;;;;;;;;;4967606;28;21082;-86
2022/11/13 06:34:51;;;;;;;12.98;7.32;;;;;;;;;;4985195;28;20034;-85
2022/11/13 06:37:16;;;;;;;14.30;7.65;;;;;;;;;;4974814;28;20042;-84
2022/11/13 06:39:42;;;;;;;13.15;8.02;;;;;;;;;;4985987;28;20070;-86
2022/11/13 06:42:07;;;;;;;15.55;8.23;;;;;;;;;;4969311;28;20046;-85
2022/11/13 06:44:32;;;;;;;13.45;8.05;;;;;;;;;;4981298;28;20070;-85
2022/11/13 06:46:58;;;;;;;16.63;8.73;;;;;;;;;;4968360;28;20041;-83
2022/11/13 06:49:23;;;;;;;15.10;8.90;;;;;;;;;;4958029;28;20438;-85
2022/11/13 06:51:48;;;;;;;14.77;8.18;;;;;;;;;;4963945;28;20030;-85
2022/11/13 06:54:14;;;;;;;15.45;8.50;;;;;;;;;;4984484;28;20042;-85
2022/11/13 06:56:44;;;;;;;15.23;8.70;;;;;;;;;;4968827;28;20042;-85
2022/11/13 06:59:09;;;;;;;13.93;8.57;;;;;;;;;;4955101;28;20038;-85
2022/11/13 07:01:37;;;;;;;13.85;8.40;;;;;;;;;;4974881;28;20039;-84
2022/11/13 07:04:05;;;;;;;15.05;8.90;;;;;;;;;;4968457;28;20039;-87
2022/11/13 07:06:31;;;;;;;14.90;8.77;;;;;;;;;;4966099;28;20054;-85
2022/11/13 07:08:56;;;;;;;14.60;8.68;;;;;;;;;;4963046;28;20038;-85
2022/11/13 07:11:22;;;;;;;18.15;9.45;;;;;;;;;;4958628;28;20133;-85
2022/11/13 07:13:48;;;;;;;13.48;8.73;;;;;;;;;;4984203;28;20382;-85
2022/11/13 07:16:15;;;;;;;15.88;9.70;;;;;;;;;;4958412;28;20046;-86
2022/11/13 07:18:40;;;;;;;17.15;10.38;;;;;;;;;;4980866;28;20042;-87
2022/11/13 07:21:11;;;;;;;17.52;10.68;;;;;;;;;;4990998;28;20564;-87
2022/11/13 07:23:41;;;;;;;16.40;9.85;;;;;;;;;;4980061;28;20573;-85
2022/11/13 07:26:10;;;;;;;17.65;10.07;;;;;;;;;;4968378;28;20035;-88
2022/11/13 07:28:36;;;;;;;18.02;10.95;;;;;;;;;;4977778;28;20046;-84
2022/11/13 07:31:01;;;;;;;19.70;11.18;;;;;;;;;;4966664;28;20402;-83
2022/11/13 07:33:27;;;;;;;17.65;11.30;;;;;;;;;;4974524;28;20031;-84
2022/11/13 07:35:55;;;;;;;18.85;11.80;;;;;;;;;;4978547;28;20038;-85
2022/11/13 07:38:21;;;;;;;18.65;12.38;;;;;;;;;;4961199;28;20034;-85
2022/11/13 07:40:47;;;;;;;21.27;11.77;;;;;;;;;;4967308;28;20555;-84
2022/11/13 07:43:12;;;;;;;18.80;12.07;;;;;;;;;;4967602;28;20042;-86
2022/11/13 07:45:38;;;;;;;21.67;13.25;;;;;;;;;;4959698;28;20038;-84
2022/11/13 07:48:04;;;;;;;23.10;13.27;;;;;;;;;;4984427;28;20035;-84
2022/11/13 07:50:32;;;;;;;23.48;12.73;;;;;;;;;;4976186;28;20035;-82
2022/11/13 07:52:58;;;;;;;21.48;12.43;;;;;;;;;;4992951;28;20086;-84
2022/11/13 07:55:24;;;;;;;20.33;13.05;;;;;;;;;;4983918;28;20097;-84
2022/11/13 07:57:54;;;;;;;21.67;12.32;;;;;;;;;;4960494;28;20035;-83
2022/11/13 08:00:19;;;;;;;22.30;13.13;;;;;;;;;;4974070;28;20417;-86
2022/11/13 08:02:46;;;;;;;19.23;11.85;;;;;;;;;;4965733;28;20038;-85
2022/11/13 08:05:12;;;;;;;20.75;11.57;;;;;;;;;;4984321;28;20521;-82
2022/11/13 08:07:38;;;;;;;20.77;10.75;;;;;;;;;;4983960;28;20070;-83
2022/11/13 08:10:04;;;;;;;18.92;10.75;;;;;;;;;;4992454;28;20117;-83
2022/11/13 08:12:29;;;;;;;18.80;10.45;;;;;;;;;;4985282;28;20046;-83
2022/11/13 08:14:54;;;;;;;19.88;11.25;;;;;;;;;;4977503;28;20057;-84
2022/11/13 08:17:20;;;;;;;16.20;10.18;;;;;;;;;;4981178;28;20045;-83
2022/11/13 08:19:45;;;;;;;16.88;10.10;;;;;;;;;;4984715;28;20084;-84
2022/11/13 08:22:11;;;;;;;15.15;9.38;;;;;;;;;;4966149;28;20030;-84
2022/11/13 08:24:36;;;;;;;18.30;10.32;;;;;;;;;;4978800;28;20034;-83
2022/11/13 08:27:02;;;;;;;16.98;10.00;;;;;;;;;;4993635;28;20486;-83
2022/11/13 08:29:27;;;;;;;18.25;9.82;;;;;;;;;;4983082;28;20039;-83
2022/11/13 08:31:55;;;;;;;23.42;13.43;;;;;;;;;;4989061;28;20038;-83
2022/11/13 08:34:21;;;;;;;19.20;10.10;;;;;;;;;;4966456;28;20062;-84
2022/11/13 08:36:46;;;;;;;19.83;10.27;;;;;;;;;;4963167;28;20607;-83
2022/11/13 08:39:13;;;;;;;17.73;10.43;;;;;;;;;;4994669;28;20034;-83
2022/11/13 08:41:38;;;;;;;16.85;9.30;;;;;;;;;;4978587;28;20130;-83
2022/11/13 08:44:04;;;;;;;16.90;9.85;;;;;;;;;;4975396;28;20450;-82
2022/11/13 08:46:29;;;;;;;25.00;13.27;;;;;;;;;;4965435;28;20038;-83
2022/11/13 08:48:54;;;;;;;15.65;9.13;;;;;;;;;;4968430;28;20038;-86
2022/11/13 08:51:20;;;;;;;17.17;8.90;;;;;;;;;;4976112;28;20053;-85
2022/11/13 08:53:52;;;;;;;15.55;8.57;;;;;;;;;;4984732;28;20038;-84
2022/11/13 08:56:18;;;;;;;15.90;9.27;;;;;;;;;;4982361;28;20512;-84
2022/11/13 08:58:44;;;;;;;15.35;9.48;;;;;;;;;;4976241;28;20034;-84
2022/11/13 09:01:09;;;;;;;14.82;8.68;;;;;;;;;;4991588;28;20030;-83
2022/11/13 09:03:35;;;;;;;16.60;9.20;;;;;;;;;;4992986;28;20065;-81
2022/11/13 09:06:06;;;;;;;15.95;9.75;;;;;;;;;;4983788;28;20038;-80
2022/11/13 09:08:32;;;;;;;16.05;8.13;;;;;;;;;;4995651;28;20072;-80
2022/11/13 09:11:02;;;;;;;14.68;8.43;;;;;;;;;;4980897;28;20505;-80
2022/11/13 09:13:28;;;;;;;13.13;7.32;;;;;;;;;;4960133;28;20046;-80
2022/11/13 09:15:53;;;;;;;13.57;7.78;;;;;;;;;;4977564;28;20099;-81
2022/11/13 09:18:18;;;;;;;14.45;8.45;;;;;;;;;;4995043;28;20041;-80
2022/11/13 09:20:44;;;;;;;12.18;8.13;;;;;;;;;;4977167;28;20039;-80
2022/11/13 09:23:12;;;;;;;13.98;8.23;;;;;;;;;;4968806;28;20120;-80
2022/11/13 09:25:38;;;;;;;13.30;7.80;;;;;;;;;;4985911;28;20040;-80
2022/11/13 09:28:06;;;;;;;16.77;8.25;;;;;;;;;;4967072;28;20038;-82
2022/11/13 09:30:32;;;;;;;14.07;8.23;;;;;;;;;;4969140;28;20041;-83
2022/11/13 09:32:59;;;;;;;15.73;8.50;;;;;;;;;;4993660;28;20030;-83
2022/11/13 09:35:34;;;;;;;13.52;8.02;;;;;;;;;;4969234;28;20042;-84
2022/11/13 09:38:09;;;;;;;14.27;8.10;;;;;;;;;;4986826;28;20041;-83
2022/11/13 09:40:37;;;;;;;15.68;8.25;;;;;;;;;;4969039;28;20133;-83
2022/11/13 09:43:05;;;;;;;12.75;8.32;;;;;;;;;;4975234;28;20031;-84
2022/11/13 09:45:31;;;;;;;12.18;7.57;;;;;;;;;;4966001;28;20034;-82
2022/11/13 09:48:20;;;;;;;13.48;7.90;;;;;;;;;;4970726;28;20501;-82
2022/11/13 09:50:46;;;;;;;12.73;8.38;;;;;;;;;;4978104;28;20034;-83
2022/11/13 09:53:12;;;;;;;13.23;8.15;;;;;;;;;;4983550;28;20485;-83
2022/11/13 09:55:42;;;;;;;11.77;7.53;;;;;;;;;;4969142;28;20409;-83
2022/11/13 09:58:20;;;;;;;13.07;8.35;;;;;;;;;;4979437;28;20718;-82
2022/11/13 10:00:46;;;;;;;12.48;7.20;;;;;;;;;;4966524;28;20036;-83
2022/11/13 10:03:39;;;;;;;12.30;7.68;;;;;;;;;;4969033;28;20497;-84
2022/11/13 10:06:19;;;;;;;12.55;7.88;;;;;;;;;;4943259;28;20050;-83
2022/11/13 10:08:54;;;;;;;12.90;7.60;;;;;;;;;;4980430;28;20057;-83
2022/11/13 10:12:07;;;;;;;12.48;7.32;;;;;;;;;;4972661;28;20042;-83
2022/11/13 10:14:47;;;;;;;12.30;8.05;;;;;;;;;;4963746;28;20126;-83
2022/11/13 10:17:23;;;;;;;15.50;8.35;;;;;;;;;;4979535;28;20039;-82
2022/11/13 10:20:00;;;;;;;12.73;7.57;;;;;;;;;;4982651;28;20077;-84
2022/11/13 10:22:36;;;;;;;14.38;8.50;;;;;;;;;;4967364;28;20069;-83
2022/11/13 10:25:10;;;;;;;14.07;8.13;;;;;;;;;;4947537;28;20035;-83
2022/11/13 10:27:36;;;;;;;14.73;8.73;;;;;;;;;;4997614;28;20034;-83
2022/11/13 10:30:03;;;;;;;13.40;9.02;;;;;;;;;;5000470;28;20061;-83
2022/11/13 10:32:31;;;;;;;14.48;8.50;;;;;;;;;;5000726;28;20097;-83
2022/11/13 10:35:26;;;;;;;12.63;7.70;;;;;;;;;;4981235;28;20038;-84
2022/11/13 10:38:24;;;;;;;13.13;7.53;;;;;;;;;;4997515;28;20699;-84
2022/11/13 10:41:09;;;;;;;12.57;7.97;;;;;;;;;;4996062;28;20047;-83
2022/11/13 10:43:35;;;;;;;12.90;7.72;;;;;;;;;;4919935;29;20387;-84
2022/11/13 10:46:04;;;;;;;11.77;7.63;;;;;;;;;;4895215;29;20033;-83
2022/11/13 10:48:32;;;;;;;11.68;8.07;;;;;;;;;;4935574;28;20043;-83
2022/11/13 10:51:04;;;;;;;13.20;8.13;;;;;;;;;;4912408;29;20544;-83
2022/11/13 10:53:40;;;;;;;12.02;8.27;;;;;;;;;;4905629;29;20539;-83
2022/11/13 10:56:20;;;;;;;13.05;8.30;;;;;;;;;;4895978;29;20051;-83
2022/11/13 10:59:18;;;;;;;14.73;8.70;;;;;;;;;;4920074;29;20051;-83
2022/11/13 11:01:45;;;;;;;12.35;8.20;;;;;;;;;;4937050;28;20590;-83
2022/11/13 11:04:13;;;;;;;14.77;7.97;;;;;;;;;;4908269;28;20452;-83
2022/11/13 11:06:40;;;;;;;14.05;8.60;;;;;;;;;;4922775;28;20655;-84
2022/11/13 11:09:28;;;;;;;13.15;7.93;;;;;;;;;;4924365;29;20735;-83
2022/11/13 11:12:21;;;;;;;12.52;8.02;;;;;;;;;;4935524;29;20110;-84
2022/11/13 11:14:55;;;;;;;17.42;8.35;;;;;;;;;;4891638;29;20051;-85
2022/11/13 11:17:36;;;;;;;12.30;8.05;;;;;;;;;;4938721;28;20062;-84
2022/11/13 11:20:17;;;;;;;12.75;8.23;;;;;;;;;;4909771;28;20486;-83
2022/11/13 11:22:43;;;;;;;13.57;8.30;;;;;;;;;;4979491;28;20046;-84
2022/11/13 11:25:32;;;;;;;11.77;8.00;;;;;;;;;;4982237;28;20042;-83
2022/11/13 11:28:11;;;;;;;11.70;7.57;;;;;;;;;;4976541;28;20487;-83
2022/11/13 11:30:45;;;;;;;12.75;7.78;;;;;;;;;;4980025;28;20058;-82
2022/11/13 11:33:25;;;;;;;11.95;8.05;;;;;;;;;;4963777;28;20564;-83
2022/11/13 11:36:04;;;;;;;10.93;7.50;;;;;;;;;;4995773;28;20046;-83
2022/11/13 11:38:39;;;;;;;10.10;6.80;;;;;;;;;;4973105;28;20149;-82
2022/11/13 11:41:10;;;;;;;10.63;6.97;;;;;;;;;;4977255;28;20480;-83
2022/11/13 11:43:41;;;;;;;10.18;6.53;;;;;;;;;;4995381;28;20097;-84
2022/11/13 11:46:13;;;;;;;10.70;7.13;;;;;;;;;;4980819;28;20037;-83
2022/11/13 11:48:39;;;;;;;9.20;6.60;;;;;;;;;;4976686;28;20499;-83
2022/11/13 11:51:23;;;;;;;9.88;7.00;;;;;;;;;;4978431;28;20122;-83
2022/11/13 11:53:54;;;;;;;11.07;6.80;;;;;;;;;;4977635;28;20041;-82
2022/11/13 11:56:45;;;;;;;9.70;6.35;;;;;;;;;;4977551;28;20251;-82
2022/11/13 11:59:33;;;;;;;11.75;6.38;;;;;;;;;;4961801;28;20034;-84
2022/11/13 12:02:05;;;;;;;9.18;6.75;;;;;;;;;;4975714;28;20113;-83
2022/11/13 12:04:42;;;;;;;9.35;6.10;;;;;;;;;;4985277;28;20546;-83
2022/11/13 12:07:32;;;;;;;9.90;6.05;;;;;;;;;;4956441;28;20038;-83
2022/11/13 12:10:09;;;;;;;9.02;5.93;;;;;;;;;;4997341;28;20034;-82
2022/11/13 12:13:02;;;;;;;11.75;6.85;;;;;;;;;;4972743;28;20462;-81
2022/11/13 12:15:46;;;;;;;10.65;7.20;;;;;;;;;;4977217;28;20181;-84
2022/11/13 12:18:18;;;;;;;11.50;7.72;;;;;;;;;;4976631;28;20089;-83
2022/11/13 12:20:56;;;;;;;12.55;7.70;;;;;;;;;;4969744;28;20049;-85
2022/11/13 12:23:34;;;;;;;11.32;7.68;;;;;;;;;;4978389;28;20042;-83
2022/11/13 12:26:28;;;;;;;11.13;7.75;;;;;;;;;;4984067;28;20498;-83
2022/11/13 12:29:06;;;;;;;11.52;7.57;;;;;;;;;;4983318;28;20142;-83
2022/11/13 12:31:59;;;;;;;10.32;7.35;;;;;;;;;;4993978;28;20088;-84
2022/11/13 12:34:34;;;;;;;11.95;7.43;;;;;;;;;;4979442;28;20042;-86
2022/11/13 12:37:01;;;;;;;11.82;7.32;;;;;;;;;;4986242;28;20607;-84
2022/11/13 12:39:27;;;;;;;10.40;6.88;;;;;;;;;;4973100;28;20096;-83
2022/11/13 12:41:57;;;;;;;9.95;6.63;;;;;;;;;;4977456;28;20053;-84
2022/11/13 12:44:27;;;;;;;11.15;7.20;;;;;;;;;;4962456;28;20041;-84
2022/11/13 12:46:56;;;;;;;12.25;8.15;;;;;;;;;;4971512;28;20045;-83
2022/11/13 12:49:21;;;;;;;11.88;7.75;;;;;;;;;;4981951;28;20687;-83
2022/11/13 12:52:13;;;;;;;12.45;7.95;;;;;;;;;;4975886;28;20046;-84
2022/11/13 12:55:02;;;;;;;13.48;8.85;;;;;;;;;;4949839;28;20037;-83
2022/11/13 12:57:28;;;;;;;12.68;7.80;;;;;;;;;;4956994;28;20042;-84
2022/11/13 12:59:56;;;;;;;12.30;8.02;;;;;;;;;;4965946;28;20038;-84
2022/11/13 13:02:46;;;;;;;12.45;7.82;;;;;;;;;;4964427;28;20373;-84
2022/11/13 13:05:19;;;;;;;12.65;7.93;;;;;;;;;;4976933;28;20034;-85
2022/11/13 13:08:26;;;;;;;12.30;7.70;;;;;;;;;;4977567;28;20042;-83
2022/11/13 13:11:14;;;;;;;15.10;8.38;;;;;;;;;;4967679;28;20038;-83
2022/11/13 13:13:45;;;;;;;13.40;8.30;;;;;;;;;;4969909;28;20038;-82
2022/11/13 13:16:11;;;;;;;13.70;8.35;;;;;;;;;;4976314;28;20037;-83
2022/11/13 13:18:38;;;;;;;10.15;7.15;;;;;;;;;;4970494;28;20042;-84
2022/11/13 13:21:12;;;;;;;10.85;7.15;;;;;;;;;;4982630;28;20448;-83
2022/11/13 13:23:40;;;;;;;11.85;7.45;;;;;;;;;;4980286;28;20053;-83
2022/11/13 13:26:14;;;;;;;;;;;;;;;;;;4978052;28;20026;-83
2022/11/13 13:28:43;;;;;;;11.93;7.53;;;;;;;;;;4977815;28;19917;-83
2022/11/13 13:31:08;;;;;;;14.18;7.70;;;;;;;;;;4975105;28;20072;-83
2022/11/13 13:33:46;;;;;;;12.32;7.43;;;;;;;;;;4975354;28;20046;-86
2022/11/13 13:36:36;;;;;;;13.57;7.25;;;;;;;;;;4977184;28;20488;-90
2022/11/13 13:39:24;;;;;;;12.65;8.10;;;;;;;;;;4994208;28;20693;-90
2022/11/13 13:42:17;;;;;;;10.10;6.82;;;;;;;;;;4994675;28;20043;-90
2022/11/13 13:45:10;;;;;;;12.32;7.20;;;;;;;;;;4968060;28;20039;-90
2022/11/13 13:47:42;;;;;;;13.95;7.88;;;;;;;;;;4980897;28;20042;-86
2022/11/13 13:50:14;;;;;;;10.10;6.80;;;;;;;;;;4969931;28;20382;-88
2022/11/13 13:52:42;;;;;;;11.63;7.03;;;;;;;;;;4979836;28;20030;-87
2022/11/13 13:55:16;;;;;;;13.25;7.85;;;;;;;;;;4974278;28;20478;-88
2022/11/13 13:57:41;;;;;;;11.55;7.78;;;;;;;;;;4994857;28;20039;-88
2022/11/13 14:00:12;;;;;;;11.50;7.38;;;;;;;;;;4967271;28;20058;-88
2022/11/13 14:02:45;;;;;;;12.88;8.02;;;;;;;;;;4968158;28;20775;-87
2022/11/13 14:05:29;;;;;;;12.35;7.97;;;;;;;;;;4986714;28;20056;-89
2022/11/13 14:07:55;;;;;;;14.18;7.82;;;;;;;;;;4954684;28;20042;-91
2022/11/13 14:10:26;;;;;;;11.63;7.75;;;;;;;;;;4976644;28;20043;-89
2022/11/13 14:12:53;;;;;;;11.93;7.57;;;;;;;;;;4990761;28;20034;-87
2022/11/13 14:15:31;;;;;;;14.02;8.15;;;;;;;;;;4978157;28;20414;-89
2022/11/13 14:18:23;;;;;;;13.35;7.95;;;;;;;;;;4965832;28;20589;-89
2022/11/13 14:20:51;;;;;;;14.73;7.90;;;;;;;;;;4971975;28;20764;-92
2022/11/13 14:23:41;;;;;;;14.43;8.85;;;;;;;;;;4969002;28;20061;-91
2022/11/13 14:26:09;;;;;;;14.20;8.55;;;;;;;;;;4967056;28;20089;-91
2022/11/13 14:28:48;;;;;;;14.15;8.32;;;;;;;;;;4980271;28;20037;-90
2022/11/13 14:31:14;;;;;;;14.18;8.60;;;;;;;;;;4962314;28;20101;-86
2022/11/13 14:33:43;;;;;;;13.50;8.57;;;;;;;;;;4968266;28;20038;-87
2022/11/13 14:36:09;;;;;;;15.57;9.15;;;;;;;;;;4998968;28;20508;-92
2022/11/13 14:38:38;;;;;;;13.90;8.90;;;;;;;;;;4970172;28;20046;-91
2022/11/13 14:41:03;;;;;;;18.02;9.35;;;;;;;;;;4984310;28;20026;-93
2022/11/13 14:43:50;;;;;;;15.05;9.48;;;;;;;;;;4989962;28;20042;-90